Anna Desgagnes — VCWS — position and weather

sailwx.info

Track history (hours):
 
Tides and Currents Weather Stations Pressure Air Temp Water Temp Dewpoint Dewpoint Depression Visibility Wind Speed Wind Dir Waves Ship Positions

Anna Desgagnes

Last reported at 2014-Sep-19 03:30 UTC. Time now 2014-Sep-19 03:47 UTC.
Position N 45°24' W 073°36'.

Length 173 m; draft 7.5 m.

Type: Cargo ship. MMSI: 316297000.

Date/timePositionNaut miles runAvg speedWind from/ knotsBaromVisibWave heightAir tempDewpointWater temp
2014-Sep-19 03:30N 45°24' W 073°36'0 0.0
2014-Sep-19 02:18N 45°24' W 073°36'0 0.0
2014-Sep-19 01:33N 45°24' W 073°36'0 0.0
2014-Sep-19 00:33N 45°24' W 073°36'0 0.0
2014-Sep-18 23:33N 45°24' W 073°36'0 0.0
2014-Sep-18 22:30N 45°24' W 073°36'0 0.0
2014-Sep-18 21:33N 45°24' W 073°36'0 0.0
2014-Sep-18 20:30N 45°24' W 073°36'0 0.0
2014-Sep-18 19:33N 45°24' W 073°36'0 0.0
2014-Sep-18 18:33N 45°24' W 073°36'0 0.0
2014-Sep-18 17:33N 45°24' W 073°36'0 0.0
2014-Sep-18 16:33N 45°24' W 073°36'0 0.0
2014-Sep-18 15:33N 45°24' W 073°36'0 0.0
2014-Sep-18 14:33N 45°24' W 073°36'0 0.0
2014-Sep-18 13:33N 45°24' W 073°36'0 0.0
2014-Sep-18 12:33N 45°24' W 073°36'0 0.0
2014-Sep-18 11:33N 45°24' W 073°36'0 0.0
2014-Sep-18 10:33N 45°24' W 073°36'0 0.0
2014-Sep-18 09:33N 45°24' W 073°36'0 0.0
2014-Sep-18 08:33N 45°24' W 073°36'0 0.0
2014-Sep-18 07:33N 45°24' W 073°36'0 0.0
2014-Sep-18 06:33N 45°24' W 073°36'0 0.0
2014-Sep-18 05:33N 45°24' W 073°36'0 0.0
2014-Sep-18 04:33N 45°24' W 073°36'0 0.0
2014-Sep-18 03:33N 45°24' W 073°36'0 0.0
2014-Sep-18 02:33N 45°24' W 073°36'0 0.0
2014-Sep-18 01:33N 45°24' W 073°36'0 0.0
2014-Sep-18 00:33N 45°24' W 073°36'0 0.0
2014-Sep-17 23:31N 45°24' W 073°36'3 3.3
2014-Sep-17 22:33N 45°25' W 073°40'4 3.6
2014-Sep-17 21:33N 45°24' W 073°45'7 7.3
2014-Sep-17 20:33N 45°24' W 073°35'3 2.9
2014-Sep-17 19:33N 45°25' W 073°31'5 4.6
2014-Sep-17 18:32N 45°30' W 073°31'3 3.1
2014-Sep-17 17:33N 45°33' W 073°31'3 3.3
2014-Sep-17 16:33N 45°36' W 073°30'9 8.7
2014-Sep-17 15:33N 45°44' W 073°25'10 9.7
2014-Sep-17 14:33N 45°51' W 073°16'10 9.5
2014-Sep-17 13:33N 46°00' W 073°11'11 9.1
2014-Sep-17 12:23N 46°06' W 072°58'910.9
2014-Sep-17 11:33N 46°13' W 072°49'1111.2
2014-Sep-17 10:33N 46°18' W 072°35'1110.8
2014-Sep-17 09:33N 46°25' W 072°23'1111.4
2014-Sep-17 08:33N 46°32' W 072°10'  
Track history (hours):
 
Tides and Currents Weather Stations Pressure Air Temp Water Temp Dewpoint Dewpoint Depression Visibility Wind Speed Wind Dir Waves Ship Positions

Anna Desgagnes

Last reported at 2014-Sep-19 03:30 UTC. Time now 2014-Sep-19 03:47 UTC.
Position N 45°24' W 073°36'.

Length 173 m; draft 7.5 m.

Type: Cargo ship. MMSI: 316297000.

Date/timePositionNaut miles runAvg speedWind from/ knotsBaromVisibWave heightAir tempDewpointWater temp
2014-Sep-19 03:30N 45°24' W 073°36'0 0.0
2014-Sep-19 02:18N 45°24' W 073°36'0 0.0
2014-Sep-19 01:33N 45°24' W 073°36'0 0.0
2014-Sep-19 00:33N 45°24' W 073°36'0 0.0
2014-Sep-18 23:33N 45°24' W 073°36'0 0.0
2014-Sep-18 22:30N 45°24' W 073°36'0 0.0
2014-Sep-18 21:33N 45°24' W 073°36'0 0.0
2014-Sep-18 20:30N 45°24' W 073°36'0 0.0
2014-Sep-18 19:33N 45°24' W 073°36'0 0.0
2014-Sep-18 18:33N 45°24' W 073°36'0 0.0
2014-Sep-18 17:33N 45°24' W 073°36'0 0.0
2014-Sep-18 16:33N 45°24' W 073°36'0 0.0
2014-Sep-18 15:33N 45°24' W 073°36'0 0.0
2014-Sep-18 14:33N 45°24' W 073°36'0 0.0
2014-Sep-18 13:33N 45°24' W 073°36'0 0.0
2014-Sep-18 12:33N 45°24' W 073°36'0 0.0
2014-Sep-18 11:33N 45°24' W 073°36'0 0.0
2014-Sep-18 10:33N 45°24' W 073°36'0 0.0
2014-Sep-18 09:33N 45°24' W 073°36'0 0.0
2014-Sep-18 08:33N 45°24' W 073°36'0 0.0
2014-Sep-18 07:33N 45°24' W 073°36'0 0.0
2014-Sep-18 06:33N 45°24' W 073°36'0 0.0
2014-Sep-18 05:33N 45°24' W 073°36'0 0.0
2014-Sep-18 04:33N 45°24' W 073°36'0 0.0
2014-Sep-18 03:33N 45°24' W 073°36'0 0.0
2014-Sep-18 02:33N 45°24' W 073°36'0 0.0
2014-Sep-18 01:33N 45°24' W 073°36'0 0.0
2014-Sep-18 00:33N 45°24' W 073°36'0 0.0
2014-Sep-17 23:31N 45°24' W 073°36'3 3.3
2014-Sep-17 22:33N 45°25' W 073°40'4 3.6
2014-Sep-17 21:33N 45°24' W 073°45'7 7.3
2014-Sep-17 20:33N 45°24' W 073°35'3 2.9
2014-Sep-17 19:33N 45°25' W 073°31'5 4.6
2014-Sep-17 18:32N 45°30' W 073°31'3 3.1
2014-Sep-17 17:33N 45°33' W 073°31'3 3.3
2014-Sep-17 16:33N 45°36' W 073°30'9 8.7
2014-Sep-17 15:33N 45°44' W 073°25'10 9.7
2014-Sep-17 14:33N 45°51' W 073°16'10 9.5
2014-Sep-17 13:33N 46°00' W 073°11'11 9.1
2014-Sep-17 12:23N 46°06' W 072°58'910.9
2014-Sep-17 11:33N 46°13' W 072°49'1111.2
2014-Sep-17 10:33N 46°18' W 072°35'1110.8
2014-Sep-17 09:33N 46°25' W 072°23'1111.4
2014-Sep-17 08:33N 46°32' W 072°10'  

Dump ship's entire track history